createdAt,value
2018-06-18T00:01:24.515Z,19.80
2018-06-18T00:03:55.970Z,19.70
2018-06-18T00:06:27.818Z,19.80
2018-06-18T00:08:59.489Z,19.80
2018-06-18T00:14:03.384Z,19.80
2018-06-18T00:19:05.998Z,19.80
2018-06-18T00:24:09.661Z,19.90
2018-06-18T00:26:41.079Z,19.90
2018-06-18T00:29:12.562Z,19.90
2018-06-18T00:31:44.068Z,20.00
2018-06-18T00:36:46.902Z,20.00
2018-06-18T00:39:18.772Z,20.00
2018-06-18T00:41:50.251Z,20.00
2018-06-18T00:44:21.805Z,20.00
2018-06-18T00:46:53.472Z,20.00
2018-06-18T00:49:24.963Z,20.00
2018-06-18T00:51:56.729Z,20.00
2018-06-18T00:54:28.319Z,20.00
2018-06-18T00:57:00.007Z,20.10
2018-06-18T00:59:31.389Z,20.00
2018-06-18T01:02:02.867Z,20.00
2018-06-18T01:04:34.335Z,20.00
2018-06-18T01:07:06.109Z,20.00
2018-06-18T01:09:37.551Z,20.00
2018-06-18T01:12:14.357Z,20.00
2018-06-18T01:14:45.815Z,20.00
2018-06-18T01:17:17.303Z,20.00
2018-06-18T01:19:48.858Z,20.00
2018-06-18T01:22:20.482Z,20.00
2018-06-18T01:25:01.037Z,20.00
2018-06-18T01:27:32.906Z,20.00
2018-06-18T01:30:05.197Z,20.00
2018-06-18T01:35:11.416Z,20.00
2018-06-18T01:37:44.833Z,20.00
2018-06-18T01:40:16.374Z,20.00
2018-06-18T01:42:48.248Z,20.00
2018-06-18T01:45:20.484Z,20.00
2018-06-18T01:47:51.923Z,20.00
2018-06-18T01:50:23.462Z,20.00
2018-06-18T01:52:56.585Z,20.00
2018-06-18T01:55:29.657Z,20.10
2018-06-18T02:00:33.279Z,20.10
2018-06-18T02:03:05.541Z,20.10
2018-06-18T02:05:37.641Z,20.00
2018-06-18T02:08:09.570Z,20.10
2018-06-18T02:10:41.069Z,20.10
2018-06-18T02:13:12.556Z,20.10
2018-06-18T02:15:43.977Z,20.10
2018-06-18T02:18:15.429Z,20.00
2018-06-18T02:20:47.353Z,20.00
2018-06-18T02:23:19.081Z,20.00
2018-06-18T02:25:52.248Z,20.00
2018-06-18T02:28:29.146Z,20.00
2018-06-18T02:33:43.799Z,20.00
2018-06-18T02:38:56.434Z,20.00
2018-06-18T02:41:27.893Z,20.00
2018-06-18T02:43:59.375Z,20.00
2018-06-18T02:46:31.453Z,20.00
2018-06-18T02:49:02.959Z,20.00
2018-06-18T02:51:34.874Z,20.00
2018-06-18T02:54:07.578Z,20.00
2018-06-18T02:56:58.875Z,20.00
2018-06-18T02:59:30.716Z,19.90
2018-06-18T03:02:02.640Z,19.90
2018-06-18T03:04:34.098Z,19.90
2018-06-18T03:07:05.552Z,19.90
2018-06-18T03:09:37.046Z,19.90
2018-06-18T03:12:08.999Z,19.80
2018-06-18T03:14:41.232Z,19.80
2018-06-18T03:17:13.176Z,19.80
2018-06-18T03:19:50.060Z,19.70
2018-06-18T03:22:26.744Z,19.70
2018-06-18T03:25:03.273Z,19.70
2018-06-18T03:27:40.206Z,19.70
2018-06-18T03:30:11.705Z,19.70
2018-06-18T03:32:44.287Z,19.70
2018-06-18T03:35:15.996Z,19.70
2018-06-18T03:37:48.516Z,19.60
2018-06-18T03:40:20.049Z,19.60
2018-06-18T03:42:51.506Z,19.60
2018-06-18T03:45:28.398Z,19.60
2018-06-18T03:48:03.409Z,19.50
2018-06-18T03:50:35.629Z,19.60
2018-06-18T03:53:07.645Z,19.50
2018-06-18T03:55:52.921Z,19.50
2018-06-18T03:58:24.537Z,19.50
2018-06-18T04:03:49.533Z,19.50
2018-06-18T04:06:26.767Z,19.50
2018-06-18T04:10:03.098Z,19.50
2018-06-18T04:12:34.956Z,19.50
2018-06-18T04:15:06.812Z,19.50
2018-06-18T04:17:38.301Z,19.50
2018-06-18T04:20:09.707Z,19.50
2018-06-18T04:22:41.653Z,19.50
2018-06-18T04:25:13.197Z,19.40
2018-06-18T04:27:45.779Z,19.40
2018-06-18T04:30:17.479Z,19.40
2018-06-18T04:32:48.901Z,19.50
2018-06-18T04:35:20.809Z,19.50
2018-06-18T04:37:53.300Z,19.50
2018-06-18T04:40:24.900Z,19.60
2018-06-18T04:43:01.627Z,19.60
2018-06-18T04:45:38.166Z,19.60
2018-06-18T04:48:14.875Z,19.70
2018-06-18T04:50:51.645Z,19.70
2018-06-18T04:53:23.676Z,19.70
2018-06-18T04:55:55.291Z,19.70
2018-06-18T04:58:26.807Z,19.70
2018-06-18T05:03:35.847Z,19.80
2018-06-18T05:06:07.351Z,19.80
2018-06-18T05:09:07.033Z,19.90
2018-06-18T05:11:39.437Z,19.90
2018-06-18T05:14:11.248Z,19.90
2018-06-18T05:16:43.214Z,20.00
2018-06-18T05:19:15.465Z,20.00
2018-06-18T05:21:47.038Z,20.10
2018-06-18T05:24:18.500Z,20.10
2018-06-18T05:26:53.312Z,20.20
2018-06-18T05:31:58.248Z,20.30
2018-06-18T05:34:32.028Z,20.30
2018-06-18T05:37:09.813Z,20.30
2018-06-18T05:39:41.325Z,20.30
2018-06-18T05:42:13.345Z,20.40
2018-06-18T05:44:44.946Z,20.40
2018-06-18T05:47:16.520Z,20.40
2018-06-18T05:49:48.106Z,20.40
2018-06-18T05:52:21.088Z,20.50
2018-06-18T05:54:52.601Z,20.50
2018-06-18T05:59:55.151Z,20.60
2018-06-18T06:02:26.606Z,20.60
2018-06-18T06:04:58.201Z,20.70
2018-06-18T06:07:29.734Z,20.70
2018-06-18T06:10:03.062Z,20.70
2018-06-18T06:12:34.591Z,20.70
2018-06-18T06:15:06.770Z,20.80
2018-06-18T06:17:38.413Z,20.90
2018-06-18T06:20:10.716Z,20.90
2018-06-18T06:22:42.184Z,20.90
2018-06-18T06:25:13.762Z,21.00
2018-06-18T06:27:45.223Z,21.00
2018-06-18T06:30:16.875Z,21.00
2018-06-18T06:32:48.338Z,21.00
2018-06-18T06:37:58.148Z,21.10
2018-06-18T06:40:29.578Z,21.10
2018-06-18T06:43:01.082Z,21.20
2018-06-18T06:45:32.981Z,21.20
2018-06-18T06:48:04.945Z,21.30
2018-06-18T06:50:36.509Z,21.30
2018-06-18T06:53:08.441Z,21.40
2018-06-18T06:55:40.051Z,21.40
2018-06-18T06:58:11.534Z,21.40
2018-06-18T07:00:43.117Z,21.50
2018-06-18T07:03:15.022Z,21.50
2018-06-18T07:08:17.568Z,21.60
2018-06-18T07:10:49.430Z,21.60
2018-06-18T07:13:21.348Z,21.60
2018-06-18T07:15:53.405Z,21.60
2018-06-18T07:18:25.327Z,21.70
2018-06-18T07:20:56.762Z,21.70
2018-06-18T07:23:28.481Z,21.80
2018-06-18T07:26:00.118Z,21.80
2018-06-18T07:31:03.590Z,22.00
2018-06-18T07:33:36.002Z,22.00
2018-06-18T07:36:07.873Z,22.10
2018-06-18T07:38:39.519Z,22.10
2018-06-18T07:41:12.101Z,22.20
2018-06-18T07:43:43.615Z,22.20
2018-06-18T07:46:15.564Z,22.20
2018-06-18T07:48:47.554Z,22.20
2018-06-18T07:51:19.313Z,22.30
2018-06-18T07:53:50.801Z,22.30
2018-06-18T07:56:22.287Z,22.40
2018-06-18T07:58:53.809Z,22.50
2018-06-18T08:01:25.634Z,22.50
2018-06-18T08:03:58.032Z,22.60
2018-06-18T08:06:30.408Z,22.60
2018-06-18T08:09:02.100Z,22.70
2018-06-18T08:11:33.857Z,22.80
2018-06-18T08:14:06.222Z,22.80
2018-06-18T08:16:38.013Z,22.90
2018-06-18T08:19:09.831Z,22.90
2018-06-18T08:24:15.513Z,23.00
2018-06-18T08:26:47.161Z,23.10
2018-06-18T08:29:18.657Z,23.20
2018-06-18T08:34:21.729Z,23.30
2018-06-18T08:36:53.951Z,23.30
2018-06-18T08:41:57.217Z,23.40
2018-06-18T08:44:29.349Z,23.40
2018-06-18T08:47:01.843Z,23.30
2018-06-18T08:49:33.469Z,23.30
2018-06-18T08:52:10.138Z,23.30
2018-06-18T08:54:47.584Z,23.30
2018-06-18T08:57:24.520Z,23.30
2018-06-18T09:00:01.275Z,23.40
2018-06-18T09:02:33.925Z,23.40
2018-06-18T09:05:12.111Z,23.40
2018-06-18T09:07:48.802Z,23.40
2018-06-18T09:10:21.109Z,23.50
2018-06-18T09:12:53.154Z,23.50
2018-06-18T09:15:24.774Z,23.50
2018-06-18T09:17:57.050Z,23.50
2018-06-18T09:20:28.748Z,23.50
2018-06-18T09:23:00.549Z,23.50
2018-06-18T09:25:32.090Z,23.60
2018-06-18T09:28:03.616Z,23.60
2018-06-18T09:30:35.546Z,23.60
2018-06-18T09:33:07.317Z,23.60
2018-06-18T09:35:40.023Z,23.60
2018-06-18T09:38:11.646Z,23.70
2018-06-18T09:40:43.868Z,23.70
2018-06-18T09:43:15.332Z,23.70
2018-06-18T09:45:47.493Z,23.80
2018-06-18T09:48:20.009Z,23.90
2018-06-18T09:50:57.720Z,23.90
2018-06-18T09:53:34.570Z,24.10
2018-06-18T09:58:47.213Z,24.40
2018-06-18T10:01:25.657Z,24.50
2018-06-18T10:03:57.232Z,24.70
2018-06-18T10:06:31.191Z,24.80
2018-06-18T10:09:06.563Z,24.90
2018-06-18T10:11:38.934Z,25.00
2018-06-18T10:16:42.578Z,25.00
2018-06-18T10:19:14.599Z,24.90
2018-06-18T10:21:46.038Z,25.00
2018-06-18T10:24:17.548Z,24.90
2018-06-18T10:26:49.683Z,24.80
2018-06-18T10:29:21.622Z,24.80
2018-06-18T10:31:53.532Z,24.70
2018-06-18T10:34:30.643Z,24.60
2018-06-18T10:39:44.326Z,24.50
2018-06-18T10:42:22.627Z,24.40
2018-06-18T10:44:55.697Z,24.40
2018-06-18T10:47:28.306Z,24.30
2018-06-18T10:49:59.969Z,24.30
2018-06-18T10:52:31.377Z,24.30
2018-06-18T10:55:03.028Z,24.30
2018-06-18T10:57:35.978Z,24.20
2018-06-18T11:00:11.756Z,24.30
2018-06-18T11:02:43.302Z,24.30
2018-06-18T11:05:15.045Z,24.30
2018-06-18T11:07:46.545Z,24.30
2018-06-18T11:10:18.183Z,24.40
2018-06-18T11:12:50.241Z,24.40
2018-06-18T11:15:23.018Z,24.30
2018-06-18T11:18:00.684Z,24.60
2018-06-18T11:20:38.668Z,24.40
2018-06-18T11:23:15.440Z,24.40
2018-06-18T11:25:53.316Z,24.40
2018-06-18T11:28:24.871Z,24.40
2018-06-18T11:30:56.754Z,24.30
2018-06-18T11:33:30.505Z,24.30
2018-06-18T11:36:02.850Z,24.30
2018-06-18T11:38:35.081Z,24.30
2018-06-18T11:41:07.041Z,24.30
2018-06-18T11:43:38.811Z,24.30
2018-06-18T11:46:10.669Z,24.30
2018-06-18T11:48:43.083Z,24.30
2018-06-18T11:51:14.669Z,24.30
2018-06-18T11:53:46.264Z,24.30
2018-06-18T11:56:18.582Z,24.30
2018-06-18T12:01:31.727Z,24.30
2018-06-18T12:04:08.359Z,24.30
2018-06-18T12:06:44.977Z,24.30
2018-06-18T12:09:21.519Z,24.20
2018-06-18T12:11:53.258Z,24.20
2018-06-18T12:14:25.033Z,24.20
2018-06-18T12:16:56.852Z,24.10
2018-06-18T12:19:29.027Z,24.10
2018-06-18T12:22:00.826Z,24.10
2018-06-18T12:24:33.474Z,24.00
2018-06-18T12:27:06.013Z,24.00
2018-06-18T12:29:39.418Z,23.60
2018-06-18T12:32:11.502Z,23.90
2018-06-18T12:34:44.094Z,24.00
2018-06-18T12:37:16.026Z,24.00
2018-06-18T12:39:48.668Z,24.00
2018-06-18T12:42:20.727Z,24.10
2018-06-18T12:48:33.982Z,24.30
2018-06-18T12:51:10.743Z,24.30
2018-06-18T12:54:49.435Z,24.40
2018-06-18T12:57:22.173Z,24.40
2018-06-18T12:59:53.773Z,24.50
2018-06-18T13:02:33.561Z,24.50
2018-06-18T13:05:05.459Z,24.50
2018-06-18T13:07:37.469Z,24.60
2018-06-18T13:10:09.960Z,24.60
2018-06-18T13:12:41.816Z,24.60
2018-06-18T13:15:13.727Z,24.70
2018-06-18T13:17:45.489Z,24.70
2018-06-18T13:20:17.280Z,24.70
2018-06-18T13:22:50.254Z,24.70
2018-06-18T13:27:59.125Z,24.60
2018-06-18T13:30:30.857Z,24.50
2018-06-18T13:33:05.726Z,24.50
2018-06-18T13:35:39.227Z,24.40
2018-06-18T13:38:16.593Z,24.40
2018-06-18T13:40:53.519Z,24.30
2018-06-18T13:43:30.268Z,24.30
2018-06-18T13:46:07.951Z,24.30
2018-06-18T13:48:48.885Z,24.20
2018-06-18T13:51:21.603Z,24.20
2018-06-18T13:53:53.911Z,24.20
2018-06-18T13:56:25.954Z,24.30
2018-06-18T13:58:57.808Z,24.30
2018-06-18T14:01:29.376Z,24.40
2018-06-18T14:04:01.004Z,24.50
2018-06-18T14:06:32.723Z,24.60
2018-06-18T14:11:36.591Z,24.90
2018-06-18T14:14:08.086Z,25.10
2018-06-18T14:16:39.731Z,25.20
2018-06-18T14:19:17.471Z,25.30
2018-06-18T14:24:20.786Z,25.70
2018-06-18T14:26:52.900Z,25.70
2018-06-18T14:29:29.779Z,25.80
2018-06-18T14:32:01.350Z,25.90
2018-06-18T14:34:39.306Z,25.90
2018-06-18T14:37:22.660Z,25.90
2018-06-18T14:40:04.357Z,26.00
2018-06-18T14:42:35.888Z,26.00
2018-06-18T14:45:08.064Z,26.00
2018-06-18T14:47:39.807Z,26.10
2018-06-18T14:50:12.167Z,26.10
2018-06-18T14:52:43.909Z,26.10
2018-06-18T14:55:16.944Z,26.10
2018-06-18T14:57:49.537Z,26.10
2018-06-18T15:00:29.613Z,26.10
2018-06-18T15:03:01.279Z,26.10
2018-06-18T15:05:37.547Z,26.10
2018-06-18T15:08:09.066Z,26.10
2018-06-18T15:10:46.551Z,26.20
2018-06-18T15:13:19.937Z,26.10
2018-06-18T15:15:57.019Z,26.10
2018-06-18T15:18:29.657Z,26.00
2018-06-18T15:21:04.345Z,25.90
2018-06-18T15:23:37.196Z,25.80
2018-06-18T15:26:09.008Z,25.70
2018-06-18T15:28:40.783Z,25.60
2018-06-18T15:31:12.599Z,25.40
2018-06-18T15:33:44.075Z,25.30
2018-06-18T15:36:15.776Z,25.20
2018-06-18T15:38:47.708Z,25.10
2018-06-18T15:41:19.557Z,25.00
2018-06-18T15:43:52.591Z,25.00
2018-06-18T15:46:24.773Z,25.00
2018-06-18T15:48:57.264Z,25.00
2018-06-18T15:51:29.010Z,25.00
2018-06-18T15:54:00.644Z,25.10
2018-06-18T15:56:32.803Z,25.10
2018-06-18T15:59:04.733Z,25.20
2018-06-18T16:01:36.709Z,25.20
2018-06-18T16:06:40.926Z,25.20
2018-06-18T16:11:44.917Z,25.20
2018-06-18T16:14:16.494Z,25.20
2018-06-18T16:16:48.246Z,25.10
2018-06-18T16:19:19.861Z,25.20
2018-06-18T16:21:51.893Z,25.10
2018-06-18T16:24:24.294Z,25.10
2018-06-18T16:26:56.307Z,25.10
2018-06-18T16:29:28.501Z,25.10
2018-06-18T16:32:00.162Z,25.20
2018-06-18T16:34:31.645Z,25.10
2018-06-18T16:37:04.095Z,25.10
2018-06-18T16:39:36.029Z,25.10
2018-06-18T16:44:41.977Z,25.10
2018-06-18T16:47:13.580Z,25.10
2018-06-18T16:49:45.461Z,25.10
2018-06-18T16:52:17.058Z,25.20
2018-06-18T16:57:20.303Z,25.30
2018-06-18T16:59:52.690Z,25.30
2018-06-18T17:02:24.643Z,25.30
2018-06-18T17:04:57.476Z,25.30
2018-06-18T17:07:30.012Z,25.30
2018-06-18T17:10:01.498Z,25.30
2018-06-18T17:12:33.599Z,25.30
2018-06-18T17:15:06.299Z,25.30
2018-06-18T17:17:39.550Z,25.40
2018-06-18T17:20:11.374Z,25.30
2018-06-18T17:22:43.862Z,25.30
2018-06-18T17:25:16.304Z,25.30
2018-06-18T17:27:47.831Z,25.30
2018-06-18T17:30:19.510Z,25.30
2018-06-18T17:32:51.092Z,25.30
2018-06-18T17:35:23.232Z,25.20
2018-06-18T17:37:54.995Z,25.20
2018-06-18T17:40:27.663Z,25.20
2018-06-18T17:43:01.829Z,25.20
2018-06-18T17:45:34.254Z,25.20
2018-06-18T17:48:05.974Z,25.20
2018-06-18T17:50:38.000Z,25.20
2018-06-18T17:53:09.500Z,25.20
2018-06-18T17:55:41.134Z,25.30
2018-06-18T17:58:12.994Z,25.20
2018-06-18T18:00:44.743Z,25.20
2018-06-18T18:03:16.445Z,25.20
2018-06-18T18:05:48.137Z,25.20
2018-06-18T18:08:20.261Z,25.20
2018-06-18T18:13:23.522Z,25.20
2018-06-18T18:15:55.890Z,25.20
2018-06-18T18:18:27.570Z,25.10
2018-06-18T18:20:59.216Z,25.10
2018-06-18T18:23:31.025Z,25.10
2018-06-18T18:26:04.283Z,25.10
2018-06-18T18:28:38.012Z,25.00
2018-06-18T18:31:10.535Z,25.00
2018-06-18T18:33:42.370Z,25.00
2018-06-18T18:36:14.315Z,25.00
2018-06-18T18:38:46.531Z,24.90
2018-06-18T18:41:18.164Z,24.90
2018-06-18T18:43:50.300Z,24.80
2018-06-18T18:46:22.246Z,24.80
2018-06-18T18:48:54.180Z,24.80
2018-06-18T18:51:26.252Z,24.80
2018-06-18T18:53:57.858Z,24.70
2018-06-18T18:57:50.329Z,24.70
2018-06-18T19:00:22.142Z,24.60
2018-06-18T19:02:54.238Z,24.50
2018-06-18T19:05:25.833Z,24.50
2018-06-18T19:10:32.533Z,24.40
2018-06-18T19:13:11.880Z,24.40
2018-06-18T19:15:43.540Z,24.30
2018-06-18T19:18:15.223Z,24.20
2018-06-18T19:22:21.326Z,24.10
2018-06-18T19:24:53.037Z,24.10
2018-06-18T19:27:24.867Z,24.00
2018-06-18T19:29:56.784Z,23.90
2018-06-18T19:32:28.939Z,23.90
2018-06-18T19:35:01.386Z,23.90
2018-06-18T19:37:32.974Z,23.80
2018-06-18T19:40:06.107Z,23.80
2018-06-18T19:42:38.616Z,23.70
2018-06-18T19:47:51.568Z,23.70
2018-06-18T19:50:23.998Z,23.60
2018-06-18T19:52:55.830Z,23.60
2018-06-18T19:55:31.360Z,23.60
2018-06-18T19:58:03.442Z,23.50
2018-06-18T20:00:47.812Z,23.50
2018-06-18T20:16:19.041Z,23.20
2018-06-18T20:18:51.401Z,23.20
2018-06-18T20:21:23.121Z,23.10
2018-06-18T20:23:55.083Z,23.10
2018-06-18T20:26:27.178Z,23.10
2018-06-18T20:28:59.094Z,23.00
2018-06-18T20:31:30.810Z,23.00
2018-06-18T20:34:03.049Z,23.00
2018-06-18T20:36:34.779Z,23.00
2018-06-18T20:39:13.420Z,23.00
2018-06-18T20:41:46.556Z,22.90
2018-06-18T20:44:21.686Z,22.90
2018-06-18T20:46:54.345Z,22.90
2018-06-18T20:49:27.356Z,22.90
2018-06-18T20:52:02.604Z,22.80
2018-06-18T20:54:37.560Z,22.90
2018-06-18T20:57:09.590Z,22.80
2018-06-18T20:59:41.305Z,22.80
2018-06-18T21:02:13.008Z,22.80
2018-06-18T21:04:44.813Z,22.80
2018-06-18T21:07:16.775Z,22.80
2018-06-18T21:09:48.598Z,22.70
2018-06-18T21:12:21.049Z,22.70
2018-06-18T21:14:52.990Z,22.70
2018-06-18T21:17:25.642Z,22.70
2018-06-18T21:19:57.748Z,22.70
2018-06-18T21:22:30.474Z,22.70
2018-06-18T21:25:02.475Z,22.70
2018-06-18T21:27:34.302Z,22.60
2018-06-18T21:30:07.696Z,22.60
2018-06-18T21:32:39.324Z,22.60
2018-06-18T21:35:11.363Z,22.60
2018-06-18T21:37:43.221Z,22.50
2018-06-18T21:40:15.067Z,22.50
2018-06-18T21:42:46.681Z,22.40
2018-06-18T21:45:23.284Z,22.40
2018-06-18T21:47:57.002Z,22.40
2018-06-18T21:50:28.883Z,22.30
2018-06-18T21:53:00.689Z,22.30
2018-06-18T21:55:32.394Z,22.20
2018-06-18T21:58:05.332Z,22.20
2018-06-18T22:00:41.243Z,22.10
2018-06-18T22:05:44.673Z,22.00
2018-06-18T22:08:19.357Z,22.00
2018-06-18T22:10:50.889Z,21.90
2018-06-18T22:13:22.550Z,21.90
2018-06-18T22:15:55.116Z,21.90
2018-06-18T22:18:27.400Z,21.80
2018-06-18T22:20:59.044Z,21.80
2018-06-18T22:23:30.690Z,21.80
2018-06-18T22:26:02.670Z,22.00
2018-06-18T22:28:38.518Z,21.70
2018-06-18T22:31:10.815Z,21.70
2018-06-18T22:33:42.490Z,21.70
2018-06-18T22:36:14.695Z,21.70
2018-06-18T22:38:46.366Z,21.40
2018-06-18T22:41:18.093Z,21.70
2018-06-18T22:43:49.866Z,21.80
2018-06-18T22:51:23.411Z,21.70
2018-06-18T22:53:54.916Z,21.70
2018-06-18T22:56:26.923Z,21.60
2018-06-18T22:58:59.672Z,21.60
2018-06-18T23:04:02.491Z,21.50
2018-06-18T23:06:34.027Z,21.40
2018-06-18T23:09:10.632Z,21.40
2018-06-18T23:14:18.877Z,21.30
2018-06-18T23:16:50.817Z,21.20
2018-06-18T23:19:22.586Z,21.10
2018-06-18T23:21:54.107Z,21.10
2018-06-18T23:24:25.598Z,21.10
2018-06-18T23:26:57.812Z,21.00
2018-06-18T23:29:30.332Z,21.00
2018-06-18T23:34:36.217Z,20.90
2018-06-18T23:37:07.716Z,20.90
2018-06-18T23:39:39.634Z,20.80
2018-06-18T23:42:11.181Z,20.80
2018-06-18T23:44:43.904Z,20.80
2018-06-18T23:47:15.605Z,20.70
2018-06-18T23:49:47.158Z,20.70
2018-06-18T23:52:19.900Z,20.70
2018-06-18T23:54:51.877Z,20.60
2018-06-18T23:57:23.554Z,20.60
2018-06-18T23:59:55.301Z,20.50
